Terminal Aerodrome Forecast
Issued by NWS Wilmington, OH

Current Version | Previous Version | Graphics & Text | Print | Product List | Glossary On
Versions: 1 2 3 4 5 6 7 8 9 10 11 12 13 14 15 16 17 18 19 20 21
000
FTUS41 KILN 152000 AAA
TAFCVG
TAF AMD
KCVG 152058Z 1521/1624 33013KT P6SM BKN045
     FM160100 35005KT P6SM FEW050
     FM160400 VRB04KT P6SM SKC
     FM160900 11005KT P6SM FEW250
     FM161400 13010KT P6SM SCT250=

USA.gov is the U.S. government's official web portal to all federal, state and local government web resources and services.